createdAt,value
2023-02-05T00:01:33.239Z,115.43
2023-02-05T00:04:02.043Z,116.97
2023-02-05T00:06:31.019Z,112.53
2023-02-05T00:09:00.406Z,106.45
2023-02-05T00:11:29.379Z,113.50
2023-02-05T00:13:58.662Z,103.63
2023-02-05T00:16:29.310Z,100.78
2023-02-05T00:18:59.745Z,81.82
2023-02-05T00:21:28.866Z,73.93
2023-02-05T00:23:57.710Z,77.15
2023-02-05T00:26:26.628Z,89.37
2023-02-05T00:28:55.704Z,88.40
2023-02-05T00:31:25.797Z,91.13
2023-02-05T00:33:56.965Z,94.22
2023-02-05T00:36:27.642Z,109.10
2023-02-05T00:38:56.671Z,106.47
2023-02-05T00:41:25.590Z,110.87
2023-02-05T00:43:54.380Z,93.33
2023-02-05T00:46:23.458Z,89.73
2023-02-05T00:48:52.280Z,105.53
2023-02-05T00:51:22.532Z,118.63
2023-02-05T00:53:51.459Z,117.27
2023-02-05T00:56:20.467Z,114.33
2023-02-05T00:58:51.054Z,124.73
2023-02-05T01:01:20.931Z,128.03
2023-02-05T01:03:50.133Z,136.93
2023-02-05T01:06:18.983Z,134.10
2023-02-05T01:08:49.440Z,156.07
2023-02-05T01:11:18.250Z,139.87
2023-02-05T01:13:47.195Z,124.40
2023-02-05T01:16:16.340Z,115.87
2023-02-05T01:18:45.247Z,110.80
2023-02-05T01:21:14.228Z,110.00
2023-02-05T01:23:43.076Z,123.53
2023-02-05T01:26:13.313Z,119.40
2023-02-05T01:28:44.524Z,125.90
2023-02-05T01:31:13.513Z,124.77
2023-02-05T01:33:42.418Z,112.60
2023-02-05T01:36:11.629Z,102.30
2023-02-05T01:38:40.475Z,101.27
2023-02-05T01:41:10.048Z,99.60
2023-02-05T01:43:40.488Z,91.37
2023-02-05T01:46:25.725Z,101.03
2023-02-05T01:48:57.277Z,106.37
2023-02-05T01:51:28.434Z,112.73
2023-02-05T01:53:57.758Z,100.70
2023-02-05T01:56:31.480Z,95.27
2023-02-05T01:59:09.484Z,92.93
2023-02-05T02:01:41.168Z,79.73
2023-02-05T02:04:11.573Z,82.40
2023-02-05T02:06:40.496Z,92.27
2023-02-05T02:09:09.992Z,94.50
2023-02-05T02:11:43.307Z,90.20
2023-02-05T02:14:15.231Z,89.23
2023-02-05T02:16:44.170Z,85.30
2023-02-05T02:19:20.618Z,85.87
2023-02-05T02:22:20.779Z,78.57
2023-02-05T02:25:22.123Z,87.27
2023-02-05T02:27:55.931Z,89.33
2023-02-05T02:30:27.633Z,90.05
2023-02-05T02:33:07.155Z,84.80
2023-02-05T02:35:44.936Z,82.47
2023-02-05T02:38:20.999Z,85.63
2023-02-05T02:40:55.679Z,84.20
2023-02-05T02:43:34.256Z,93.80
2023-02-05T02:46:06.989Z,85.33
2023-02-05T02:48:41.100Z,85.88
2023-02-05T02:51:13.273Z,88.07
2023-02-05T02:53:48.519Z,96.20
2023-02-05T02:56:19.430Z,89.60
2023-02-05T02:58:53.504Z,84.47
2023-02-05T03:01:26.003Z,89.27
2023-02-05T03:03:59.913Z,85.90
2023-02-05T03:06:31.972Z,75.65
2023-02-05T03:09:07.355Z,86.00
2023-02-05T03:11:36.467Z,88.80
2023-02-05T03:14:06.852Z,105.03
2023-02-05T03:16:39.188Z,107.47
2023-02-05T03:19:08.884Z,102.20
2023-02-05T03:21:42.943Z,107.53
2023-02-05T03:24:12.722Z,106.45
2023-02-05T03:26:42.360Z,114.13
2023-02-05T03:29:28.240Z,101.47
2023-02-05T03:32:10.300Z,104.40
2023-02-05T03:34:52.821Z,96.07
2023-02-05T03:37:47.613Z,102.77
2023-02-05T03:40:21.966Z,98.93
2023-02-05T03:43:00.464Z,97.00
2023-02-05T03:45:38.126Z,109.10
2023-02-05T03:48:33.151Z,101.97
2023-02-05T03:51:11.915Z,107.53
2023-02-05T03:53:51.191Z,106.30
2023-02-05T03:56:23.334Z,114.60
2023-02-05T03:58:56.323Z,103.50
2023-02-05T04:01:29.403Z,114.07
2023-02-05T04:03:58.452Z,133.63
2023-02-05T04:06:27.320Z,128.63
2023-02-05T04:08:56.389Z,121.25
2023-02-05T04:11:25.714Z,119.63
2023-02-05T04:13:55.140Z,113.60
2023-02-05T04:16:24.241Z,122.87
2023-02-05T04:18:54.541Z,117.13
2023-02-05T04:21:23.571Z,110.32
2023-02-05T04:23:52.666Z,134.98
2023-02-05T04:26:21.948Z,140.35
2023-02-05T04:29:00.508Z,140.63
2023-02-05T04:31:31.409Z,139.00
2023-02-05T04:34:02.070Z,138.52
2023-02-05T04:36:31.114Z,104.78
2023-02-05T04:39:00.737Z,129.23
2023-02-05T04:41:29.649Z,108.93
2023-02-05T04:43:58.487Z,109.72
2023-02-05T04:46:27.260Z,102.00
2023-02-05T04:48:56.133Z,111.68
2023-02-05T04:51:26.297Z,141.55
2023-02-05T04:53:55.240Z,122.63
2023-02-05T04:56:24.038Z,104.03
2023-02-05T04:58:52.894Z,103.00
2023-02-05T05:01:23.684Z,89.83
2023-02-05T05:03:52.892Z,93.60
2023-02-05T05:06:21.721Z,97.80
2023-02-05T05:08:51.991Z,97.43
2023-02-05T05:11:21.376Z,93.17
2023-02-05T05:13:52.149Z,93.63
2023-02-05T05:16:21.460Z,93.47
2023-02-05T05:18:53.295Z,116.67
2023-02-05T05:21:22.106Z,115.28
2023-02-05T05:23:52.479Z,114.82
2023-02-05T05:26:21.467Z,109.65
2023-02-05T05:28:53.994Z,109.88
2023-02-05T05:31:23.402Z,97.10
2023-02-05T05:33:52.696Z,110.00
2023-02-05T05:36:21.527Z,106.18
2023-02-05T05:38:51.714Z,103.80
2023-02-05T05:41:40.993Z,101.17
2023-02-05T05:44:11.104Z,105.07
2023-02-05T05:46:39.991Z,103.50
2023-02-05T05:49:08.823Z,99.80
2023-02-05T05:51:37.666Z,108.10
2023-02-05T05:54:07.983Z,122.50
2023-02-05T05:56:37.120Z,122.40
2023-02-05T05:59:06.056Z,109.18
2023-02-05T06:01:34.870Z,124.23
2023-02-05T06:04:04.423Z,134.13
2023-02-05T06:06:33.491Z,130.40
2023-02-05T06:09:02.228Z,129.97
2023-02-05T06:11:32.497Z,126.50
2023-02-05T06:14:01.356Z,130.00
2023-02-05T06:16:30.129Z,132.23
2023-02-05T06:18:58.942Z,127.50
2023-02-05T06:21:27.789Z,125.93
2023-02-05T06:23:56.607Z,114.67
2023-02-05T06:26:25.675Z,120.27
2023-02-05T06:28:57.327Z,107.57
2023-02-05T06:31:26.409Z,114.37
2023-02-05T06:33:55.332Z,111.37
2023-02-05T06:36:24.300Z,113.20
2023-02-05T06:38:53.230Z,116.30
2023-02-05T06:41:22.288Z,114.13
2023-02-05T06:43:51.253Z,134.50
2023-02-05T06:46:21.597Z,128.73
2023-02-05T06:48:50.417Z,118.33
2023-02-05T06:51:19.325Z,129.60
2023-02-05T06:53:48.160Z,135.13
2023-02-05T06:56:17.056Z,165.73
2023-02-05T06:58:45.884Z,132.97
2023-02-05T07:01:14.792Z,123.37
2023-02-05T07:03:45.114Z,120.33
2023-02-05T07:06:14.007Z,127.70
2023-02-05T07:08:43.206Z,131.83
2023-02-05T07:11:12.017Z,131.87
2023-02-05T07:13:40.856Z,124.27
2023-02-05T07:16:09.989Z,117.30
2023-02-05T07:18:38.834Z,119.17
2023-02-05T07:21:11.394Z,113.53
2023-02-05T07:23:40.307Z,113.40
2023-02-05T07:26:10.271Z,109.10
2023-02-05T07:28:39.342Z,107.30
2023-02-05T07:31:10.473Z,85.23
2023-02-05T07:33:39.568Z,98.90
2023-02-05T07:36:12.297Z,76.00
2023-02-05T07:38:41.627Z,74.37
2023-02-05T07:41:11.720Z,69.80
2023-02-05T07:43:40.938Z,73.83
2023-02-05T07:46:11.800Z,75.80
2023-02-05T07:48:40.777Z,75.33
2023-02-05T07:51:17.550Z,69.93
2023-02-05T07:53:46.695Z,59.90
2023-02-05T07:56:15.920Z,67.73
2023-02-05T07:58:45.074Z,70.13
2023-02-05T08:01:14.090Z,57.43
2023-02-05T08:03:42.957Z,55.13
2023-02-05T08:06:16.270Z,49.63
2023-02-05T08:08:45.761Z,48.27
2023-02-05T08:11:17.116Z,42.10
2023-02-05T08:13:46.967Z,40.97
2023-02-05T08:16:17.039Z,23.67
2023-02-05T08:18:50.507Z,22.77
2023-02-05T08:21:22.154Z,22.33
2023-02-05T08:23:51.087Z,17.90
2023-02-05T08:26:20.219Z,21.13
2023-02-05T08:28:49.286Z,18.03
2023-02-05T08:31:20.240Z,18.43
2023-02-05T08:33:50.989Z,10.00
2023-02-05T08:36:22.356Z,8.20
2023-02-05T08:38:51.484Z,10.20
2023-02-05T08:41:20.350Z,11.13
2023-02-05T08:43:51.614Z,11.60
2023-02-05T08:46:22.897Z,10.87
2023-02-05T08:48:52.170Z,9.70
2023-02-05T08:51:23.968Z,10.00
2023-02-05T08:53:53.670Z,9.53
2023-02-05T08:56:23.047Z,9.57
2023-02-05T08:58:52.039Z,9.40
2023-02-05T09:01:21.059Z,9.00
2023-02-05T09:03:49.980Z,8.77
2023-02-05T09:06:18.715Z,9.43
2023-02-05T09:08:49.004Z,10.67
2023-02-05T09:11:22.756Z,9.23
2023-02-05T09:13:51.732Z,15.27
2023-02-05T09:16:20.582Z,24.83
2023-02-05T09:18:49.411Z,25.57
2023-02-05T09:21:18.564Z,43.17
2023-02-05T09:23:48.778Z,48.63
2023-02-05T09:26:17.626Z,44.10
2023-02-05T09:28:46.612Z,41.43
2023-02-05T09:31:17.101Z,38.10
2023-02-05T09:33:46.981Z,36.13
2023-02-05T09:36:17.916Z,35.57
2023-02-05T09:38:48.905Z,26.70
2023-02-05T09:41:26.024Z,30.07
2023-02-05T09:43:58.686Z,26.73
2023-02-05T09:46:37.398Z,26.10
2023-02-05T09:49:15.114Z,24.50
2023-02-05T09:51:47.066Z,21.80
2023-02-05T09:54:22.045Z,25.50
2023-02-05T09:56:53.236Z,22.13
2023-02-05T09:59:25.157Z,15.67
2023-02-05T10:01:56.575Z,10.90
2023-02-05T10:04:26.383Z,10.20
2023-02-05T10:07:19.483Z,9.87
2023-02-05T10:10:18.992Z,8.90
2023-02-05T10:13:11.284Z,7.93
2023-02-05T10:16:04.779Z,8.57
2023-02-05T10:18:46.556Z,8.40
2023-02-05T10:21:26.228Z,18.33
2023-02-05T10:24:09.249Z,18.67
2023-02-05T10:26:45.764Z,13.63
2023-02-05T10:29:25.992Z,12.13
2023-02-05T10:32:09.445Z,9.67
2023-02-05T10:35:08.176Z,10.73
2023-02-05T10:37:44.603Z,9.87
2023-02-05T10:40:16.770Z,10.80
2023-02-05T10:42:52.794Z,20.80
2023-02-05T10:45:26.699Z,17.40
2023-02-05T10:48:05.151Z,16.17
2023-02-05T10:50:49.375Z,24.37
2023-02-05T10:53:23.356Z,63.00
2023-02-05T10:55:52.673Z,39.77
2023-02-05T10:58:48.034Z,26.73
2023-02-05T11:01:19.898Z,29.87
2023-02-05T11:03:55.897Z,28.40
2023-02-05T11:06:28.758Z,23.50
2023-02-05T11:08:58.152Z,15.13
2023-02-05T11:11:29.591Z,15.33
2023-02-05T11:14:02.619Z,9.57
2023-02-05T11:16:40.073Z,8.53
2023-02-05T11:19:21.762Z,9.53
2023-02-05T11:21:54.096Z,8.67
2023-02-05T11:24:32.138Z,8.30
2023-02-05T11:27:29.179Z,8.30
2023-02-05T11:30:01.471Z,8.67
2023-02-05T11:32:37.293Z,8.70
2023-02-05T11:35:24.670Z,9.33
2023-02-05T11:38:02.157Z,12.30
2023-02-05T11:40:33.863Z,14.47
2023-02-05T11:43:07.135Z,14.50
2023-02-05T11:45:40.092Z,11.50
2023-02-05T11:48:25.856Z,6.90
2023-02-05T11:50:55.161Z,6.47
2023-02-05T11:53:24.316Z,7.00
2023-02-05T11:56:00.200Z,6.60
2023-02-05T11:58:37.048Z,5.80
2023-02-05T12:01:24.138Z,6.07
2023-02-05T12:04:00.783Z,6.07
2023-02-05T12:06:35.451Z,6.70
2023-02-05T12:09:04.665Z,6.27
2023-02-05T12:12:04.083Z,6.73
2023-02-05T12:14:41.149Z,6.70
2023-02-05T12:17:29.374Z,5.97
2023-02-05T12:20:04.725Z,6.70
2023-02-05T12:22:50.266Z,7.10
2023-02-05T12:25:26.888Z,7.10
2023-02-05T12:28:09.486Z,6.77
2023-02-05T12:30:52.446Z,6.93
2023-02-05T12:33:40.851Z,5.87
2023-02-05T12:36:27.061Z,6.80
2023-02-05T12:39:07.675Z,5.53
2023-02-05T12:41:45.477Z,4.70
2023-02-05T12:44:32.163Z,5.90
2023-02-05T12:47:15.104Z,10.37
2023-02-05T12:50:04.383Z,7.30
2023-02-05T12:52:51.118Z,6.67
2023-02-05T12:55:30.991Z,7.73
2023-02-05T12:58:03.388Z,8.70
2023-02-05T13:00:41.006Z,9.17
2023-02-05T13:03:18.068Z,9.57
2023-02-05T13:05:52.411Z,12.60
2023-02-05T13:08:26.358Z,16.33
2023-02-05T13:11:01.421Z,15.53
2023-02-05T13:13:35.032Z,14.50
2023-02-05T13:16:08.372Z,18.33
2023-02-05T13:18:42.395Z,17.93
2023-02-05T13:21:34.696Z,17.70
2023-02-05T13:24:30.860Z,12.60
2023-02-05T13:27:17.234Z,12.03
2023-02-05T13:29:51.624Z,12.87
2023-02-05T13:32:25.466Z,13.30
2023-02-05T13:34:56.827Z,14.37
2023-02-05T13:37:47.618Z,19.23
2023-02-05T13:40:47.150Z,25.07
2023-02-05T13:43:35.861Z,20.57
2023-02-05T13:46:33.214Z,13.63
2023-02-05T13:49:53.180Z,11.60
2023-02-05T13:52:59.084Z,44.47
2023-02-05T13:56:11.257Z,38.60
2023-02-05T13:58:46.519Z,27.10
2023-02-05T14:01:20.194Z,43.47
2023-02-05T14:03:58.018Z,21.10
2023-02-05T14:06:31.794Z,11.97
2023-02-05T14:09:05.421Z,10.30
2023-02-05T14:11:54.835Z,14.23
2023-02-05T14:14:27.265Z,17.97
2023-02-05T14:16:56.913Z,19.23
2023-02-05T14:19:28.172Z,19.97
2023-02-05T14:22:03.217Z,20.87
2023-02-05T14:24:57.375Z,19.23
2023-02-05T14:27:55.733Z,35.23
2023-02-05T14:30:49.848Z,50.80
2023-02-05T14:33:46.408Z,25.43
2023-02-05T14:36:36.362Z,26.47
2023-02-05T14:39:19.512Z,20.07
2023-02-05T14:41:55.274Z,18.17
2023-02-05T14:44:30.073Z,16.53
2023-02-05T14:47:10.392Z,37.53
2023-02-05T14:49:44.509Z,36.57
2023-02-05T14:52:29.923Z,32.03
2023-02-05T14:55:03.137Z,34.93
2023-02-05T14:57:47.036Z,35.03
2023-02-05T15:00:32.762Z,43.80
2023-02-05T15:03:33.619Z,51.77
2023-02-05T15:06:07.071Z,26.30
2023-02-05T15:08:47.952Z,15.07
2023-02-05T15:11:25.132Z,29.57
2023-02-05T15:14:38.263Z,26.67
2023-02-05T15:17:52.709Z,31.40
2023-02-05T15:20:25.320Z,17.43
2023-02-05T15:22:59.396Z,20.93
2023-02-05T15:25:48.687Z,27.73
2023-02-05T15:28:28.801Z,19.60
2023-02-05T15:31:16.225Z,19.77
2023-02-05T15:33:50.688Z,16.27
2023-02-05T15:36:29.932Z,9.27
2023-02-05T15:39:11.235Z,13.23
2023-02-05T15:41:45.454Z,29.67
2023-02-05T15:44:28.014Z,17.60
2023-02-05T15:47:00.273Z,5.60
2023-02-05T15:49:37.556Z,4.53
2023-02-05T15:52:08.577Z,2.80
2023-02-05T15:54:38.492Z,2.70
2023-02-05T15:57:09.172Z,2.43
2023-02-05T15:59:38.080Z,2.43
2023-02-05T16:02:16.449Z,2.90
2023-02-05T16:04:45.291Z,3.90
2023-02-05T16:07:23.605Z,4.87
2023-02-05T16:09:56.306Z,5.03
2023-02-05T16:12:25.525Z,3.97
2023-02-05T16:15:02.034Z,4.40
2023-02-05T16:17:37.465Z,5.70
2023-02-05T16:20:21.643Z,16.00
2023-02-05T16:22:55.509Z,12.87
2023-02-05T16:25:38.900Z,16.20
2023-02-05T16:28:14.797Z,14.10
2023-02-05T16:30:45.240Z,10.47
2023-02-05T16:33:31.293Z,8.57
2023-02-05T16:36:03.056Z,25.73
2023-02-05T16:38:32.461Z,37.30
2023-02-05T16:41:18.005Z,37.03
2023-02-05T16:43:47.465Z,25.10
2023-02-05T16:46:29.136Z,14.40
2023-02-05T16:49:01.925Z,16.80
2023-02-05T16:51:36.809Z,6.30
2023-02-05T16:54:35.075Z,9.70
2023-02-05T16:57:09.135Z,10.93
2023-02-05T16:59:49.073Z,9.43
2023-02-05T17:02:32.883Z,3.90
2023-02-05T17:05:07.221Z,2.90
2023-02-05T17:07:37.268Z,6.30
2023-02-05T17:10:22.250Z,6.90
2023-02-05T17:12:58.141Z,5.17
2023-02-05T17:15:40.403Z,4.37
2023-02-05T17:18:36.422Z,3.83
2023-02-05T17:21:30.354Z,3.27
2023-02-05T17:24:03.236Z,3.90
2023-02-05T17:26:35.525Z,5.20
2023-02-05T17:29:07.323Z,4.83
2023-02-05T17:31:39.258Z,5.00
2023-02-05T17:34:08.744Z,5.07
2023-02-05T17:36:39.227Z,5.77
2023-02-05T17:39:08.378Z,5.40
2023-02-05T17:41:55.660Z,4.87
2023-02-05T17:44:24.702Z,7.63
2023-02-05T17:46:54.425Z,5.07
2023-02-05T17:49:23.682Z,5.27
2023-02-05T17:51:54.144Z,5.63
2023-02-05T17:54:25.711Z,9.60
2023-02-05T17:56:57.060Z,9.90
2023-02-05T17:59:29.656Z,5.77
2023-02-05T18:01:58.891Z,8.77
2023-02-05T18:04:27.981Z,10.77
2023-02-05T18:06:59.368Z,8.33
2023-02-05T18:09:28.832Z,7.97
2023-02-05T18:11:57.853Z,21.37
2023-02-05T18:14:26.994Z,8.77
2023-02-05T18:16:56.141Z,11.63
2023-02-05T18:19:25.160Z,22.37
2023-02-05T18:21:54.289Z,6.17
2023-02-05T18:24:24.898Z,6.80
2023-02-05T18:26:54.935Z,14.23
2023-02-05T18:29:24.085Z,11.33
2023-02-05T18:31:53.043Z,22.47
2023-02-05T18:34:22.105Z,12.37
2023-02-05T18:36:54.238Z,16.30
2023-02-05T18:39:28.660Z,35.30
2023-02-05T18:42:16.984Z,40.53
2023-02-05T18:44:46.104Z,39.40
2023-02-05T18:47:16.797Z,34.00
2023-02-05T18:49:45.845Z,25.83
2023-02-05T18:52:14.791Z,32.90
2023-02-05T18:54:46.681Z,33.47
2023-02-05T18:57:15.631Z,29.07
2023-02-05T18:59:44.811Z,20.87
2023-02-05T19:02:14.030Z,80.73
2023-02-05T19:04:44.632Z,52.37
2023-02-05T19:07:14.018Z,28.97
2023-02-05T19:09:44.952Z,25.67
2023-02-05T19:12:14.120Z,39.63
2023-02-05T19:14:43.250Z,21.10
2023-02-05T19:17:12.439Z,29.65
2023-02-05T19:19:41.533Z,48.77
2023-02-05T19:22:11.180Z,50.03
2023-02-05T19:24:40.594Z,37.10
2023-02-05T19:27:11.088Z,23.43
2023-02-05T19:29:41.214Z,22.63
2023-02-05T19:32:10.239Z,47.33
2023-02-05T19:34:41.788Z,49.83
2023-02-05T19:37:12.471Z,100.20
2023-02-05T19:39:41.749Z,101.28
2023-02-05T19:42:12.254Z,52.20
2023-02-05T19:44:41.469Z,88.28
2023-02-05T19:47:10.641Z,31.23
2023-02-05T19:49:40.686Z,22.73
2023-02-05T19:52:09.867Z,34.30
2023-02-05T19:54:38.905Z,41.70
2023-02-05T19:57:07.976Z,241.93
2023-02-05T19:59:38.921Z,103.57
2023-02-05T20:02:08.056Z,67.32
2023-02-05T20:04:37.034Z,34.50
2023-02-05T20:07:05.989Z,53.42
2023-02-05T20:09:35.093Z,58.93
2023-02-05T20:12:04.841Z,50.50
2023-02-05T20:14:34.161Z,66.40
2023-02-05T20:17:04.764Z,43.85
2023-02-05T20:19:33.868Z,32.60
2023-02-05T20:22:02.920Z,36.75
2023-02-05T20:24:32.044Z,33.78
2023-02-05T20:27:01.150Z,37.10
2023-02-05T20:29:47.521Z,43.85
2023-02-05T20:32:18.741Z,37.65
2023-02-05T20:34:50.685Z,40.42
2023-02-05T20:37:20.109Z,116.55
2023-02-05T20:39:49.184Z,128.30
2023-02-05T20:42:18.248Z,51.60
2023-02-05T20:44:48.038Z,61.17
2023-02-05T20:47:20.072Z,91.30
2023-02-05T20:49:54.366Z,52.63
2023-02-05T20:52:23.587Z,43.42
2023-02-05T20:54:55.120Z,54.28
2023-02-05T20:57:24.175Z,58.13
2023-02-05T20:59:53.540Z,48.67
2023-02-05T21:02:24.063Z,35.13
2023-02-05T21:04:53.156Z,37.92
2023-02-05T21:07:29.522Z,80.40
2023-02-05T21:10:01.008Z,59.92
2023-02-05T21:12:32.482Z,55.90
2023-02-05T21:15:01.613Z,49.08
2023-02-05T21:17:32.177Z,48.30
2023-02-05T21:20:02.778Z,49.33
2023-02-05T21:22:33.016Z,44.25
2023-02-05T21:25:02.065Z,48.00
2023-02-05T21:27:31.316Z,42.08
2023-02-05T21:30:00.336Z,39.95
2023-02-05T21:32:30.843Z,38.10
2023-02-05T21:35:02.115Z,34.90
2023-02-05T21:37:31.718Z,40.90
2023-02-05T21:40:09.095Z,38.60
2023-02-05T21:42:38.874Z,40.78
2023-02-05T21:45:08.874Z,41.85
2023-02-05T21:47:38.421Z,30.65
2023-02-05T21:50:10.073Z,19.20
2023-02-05T21:52:41.222Z,27.95
2023-02-05T21:55:10.990Z,22.05
2023-02-05T21:57:39.994Z,24.70
2023-02-05T22:00:09.777Z,27.42
2023-02-05T22:02:41.878Z,26.73
2023-02-05T22:05:12.536Z,26.70
2023-02-05T22:07:41.776Z,26.30
2023-02-05T22:10:17.054Z,24.17
2023-02-05T22:12:55.216Z,23.23
2023-02-05T22:15:24.589Z,21.13
2023-02-05T22:17:53.676Z,22.85
2023-02-05T22:20:24.142Z,24.50
2023-02-05T22:22:53.360Z,92.03
2023-02-05T22:25:22.632Z,43.75
2023-02-05T22:27:51.583Z,28.92
2023-02-05T22:30:20.783Z,29.88
2023-02-05T22:32:49.822Z,26.02
2023-02-05T22:35:18.896Z,31.83
2023-02-05T22:37:49.290Z,31.67
2023-02-05T22:40:18.384Z,28.25
2023-02-05T22:42:47.414Z,31.42
2023-02-05T22:45:16.672Z,22.50
2023-02-05T22:47:45.721Z,23.58
2023-02-05T22:50:14.660Z,30.42
2023-02-05T22:52:43.610Z,23.00
2023-02-05T22:55:14.045Z,25.85
2023-02-05T22:57:43.312Z,32.20
2023-02-05T23:00:13.556Z,20.42
2023-02-05T23:02:42.586Z,22.35
2023-02-05T23:05:11.698Z,14.68
2023-02-05T23:07:40.672Z,17.73
2023-02-05T23:10:09.998Z,18.60
2023-02-05T23:12:40.604Z,19.98
2023-02-05T23:15:10.288Z,24.52
2023-02-05T23:17:39.665Z,29.55
2023-02-05T23:20:11.116Z,23.83
2023-02-05T23:22:40.080Z,27.92
2023-02-05T23:25:09.252Z,31.67
2023-02-05T23:27:41.264Z,28.67
2023-02-05T23:30:12.281Z,30.83
2023-02-05T23:32:41.390Z,36.85
2023-02-05T23:35:10.446Z,39.47
2023-02-05T23:37:39.486Z,35.80
2023-02-05T23:40:09.684Z,28.48
2023-02-05T23:42:40.139Z,27.30
2023-02-05T23:45:27.960Z,26.25
2023-02-05T23:47:57.493Z,25.95
2023-02-05T23:50:26.583Z,25.92
2023-02-05T23:52:55.561Z,27.48
2023-02-05T23:55:24.524Z,26.85
2023-02-05T23:57:55.104Z,29.05
